Terminal Aerodrome Forecast
Issued by NWS Billings, MT

Home | Current Version | Previous Version | Text Only | Print | Product List | Glossary On
Versions: 1 2 3 4 5 6 7 8 9 10 11 12 13 14 15 16 17 18 19 20 21 22 23
000
FTUS45 KBYZ 301123
TAFSHR
TAF
KSHR 301123Z 3012/3112 VRB03KT P6SM BKN080
     FM301800 01006KT 6SM -RA BKN040 OVC080
     FM302000 01008KT 3SM -RA BR BKN008 OVC010
     FM310000 01006KT P6SM VCSH BKN006 OVC008=

USA.gov is the U.S. government's official web portal to all federal, state and local government web resources and services.